createdAt,value
2022-10-17T00:01:36.935Z,13.30
2022-10-17T00:04:25.155Z,13.40
2022-10-17T00:07:14.653Z,13.30
2022-10-17T00:10:02.349Z,13.20
2022-10-17T00:12:51.975Z,13.30
2022-10-17T00:15:39.890Z,13.20
2022-10-17T00:18:28.111Z,13.50
2022-10-17T00:21:16.693Z,13.30
2022-10-17T00:24:06.763Z,13.40
2022-10-17T00:26:57.587Z,13.40
2022-10-17T00:29:48.954Z,13.30
2022-10-17T00:32:36.712Z,13.30
2022-10-17T00:35:24.942Z,13.40
2022-10-17T00:38:12.811Z,13.40
2022-10-17T00:41:02.152Z,13.40
2022-10-17T00:43:53.920Z,11.50
2022-10-17T00:46:41.737Z,13.40
2022-10-17T00:49:31.778Z,13.30
2022-10-17T00:52:21.498Z,13.60
2022-10-17T00:55:40.557Z,13.30
2022-10-17T00:58:34.879Z,13.30
2022-10-17T01:01:22.967Z,13.30
2022-10-17T01:04:11.335Z,13.30
2022-10-17T01:07:00.883Z,13.30
2022-10-17T01:09:48.470Z,13.20
2022-10-17T01:12:40.874Z,13.90
2022-10-17T01:15:40.080Z,13.40
2022-10-17T01:18:35.063Z,13.40
2022-10-17T01:21:27.610Z,13.30
2022-10-17T01:24:30.523Z,13.40
2022-10-17T01:27:27.696Z,13.40
2022-10-17T01:30:46.328Z,13.40
2022-10-17T01:33:47.452Z,13.50
2022-10-17T01:36:40.977Z,13.50
2022-10-17T01:39:37.007Z,13.50
2022-10-17T01:42:32.188Z,13.60
2022-10-17T01:45:22.785Z,13.60
2022-10-17T01:48:17.509Z,14.80
2022-10-17T01:51:10.369Z,13.50
2022-10-17T01:53:59.949Z,13.80
2022-10-17T01:56:47.939Z,13.80
2022-10-17T01:59:38.922Z,13.90
2022-10-17T02:02:27.087Z,13.70
2022-10-17T02:05:17.523Z,13.90
2022-10-17T02:08:07.418Z,14.00
2022-10-17T02:10:59.103Z,14.00
2022-10-17T02:13:55.886Z,14.00
2022-10-17T02:16:45.176Z,14.50
2022-10-17T02:19:36.996Z,14.30
2022-10-17T02:22:29.442Z,14.30
2022-10-17T02:25:24.241Z,14.40
2022-10-17T02:28:21.477Z,14.60
2022-10-17T02:31:10.406Z,14.40
2022-10-17T02:34:00.464Z,15.10
2022-10-17T02:36:50.648Z,14.80
2022-10-17T02:39:40.863Z,14.70
2022-10-17T02:42:30.843Z,14.80
2022-10-17T02:45:19.128Z,14.80
2022-10-17T02:48:08.658Z,14.80
2022-10-17T02:51:05.552Z,14.90
2022-10-17T02:53:56.711Z,14.80
2022-10-17T02:56:46.156Z,14.80
2022-10-17T02:59:36.287Z,13.50
2022-10-17T03:02:24.039Z,14.90
2022-10-17T03:05:12.132Z,14.90
2022-10-17T03:08:01.058Z,14.90
2022-10-17T03:10:49.045Z,15.00
2022-10-17T03:13:40.209Z,15.30
2022-10-17T03:16:29.720Z,15.00
2022-10-17T03:19:17.615Z,15.00
2022-10-17T03:22:05.481Z,15.10
2022-10-17T03:24:56.649Z,17.00
2022-10-17T03:27:44.299Z,15.20
2022-10-17T03:30:34.781Z,15.30
2022-10-17T03:33:24.709Z,15.30
2022-10-17T03:36:13.405Z,15.30
2022-10-17T03:39:01.140Z,15.30
2022-10-17T03:41:50.275Z,15.40
2022-10-17T03:44:41.698Z,15.30
2022-10-17T03:47:29.976Z,15.30
2022-10-17T03:50:19.836Z,15.30
2022-10-17T03:53:08.459Z,15.30
2022-10-17T03:55:56.199Z,15.20
2022-10-17T03:58:44.555Z,15.30
2022-10-17T04:01:33.229Z,15.30
2022-10-17T04:04:21.205Z,15.70
2022-10-17T04:07:11.052Z,15.20
2022-10-17T04:10:03.177Z,13.90
2022-10-17T04:12:50.570Z,15.20
2022-10-17T04:15:38.693Z,15.20
2022-10-17T04:18:27.150Z,15.10
2022-10-17T04:21:15.490Z,17.00
2022-10-17T04:24:04.681Z,15.10
2022-10-17T04:27:04.090Z,15.20
2022-10-17T04:29:54.226Z,15.10
2022-10-17T04:32:44.768Z,15.00
2022-10-17T04:35:35.867Z,15.10
2022-10-17T04:38:28.539Z,15.10
2022-10-17T04:41:19.141Z,15.10
2022-10-17T04:44:11.677Z,15.10
2022-10-17T04:47:03.505Z,15.10
2022-10-17T04:49:51.444Z,15.30
2022-10-17T04:52:39.992Z,15.20
2022-10-17T04:55:29.605Z,15.10
2022-10-17T04:58:18.580Z,15.10
2022-10-17T05:01:07.614Z,15.10
2022-10-17T05:03:56.367Z,15.10
2022-10-17T05:06:43.762Z,15.00
2022-10-17T05:09:52.694Z,15.00
2022-10-17T05:12:46.835Z,13.60
2022-10-17T05:15:39.435Z,15.40
2022-10-17T05:18:27.258Z,15.30
2022-10-17T05:21:15.804Z,15.10
2022-10-17T05:24:03.746Z,15.10
2022-10-17T05:26:52.350Z,15.10
2022-10-17T05:29:40.478Z,15.20
2022-10-17T05:32:40.204Z,15.10
2022-10-17T05:35:28.937Z,15.20
2022-10-17T05:38:17.012Z,15.00
2022-10-17T05:41:06.915Z,13.50
2022-10-17T05:43:54.772Z,15.00
2022-10-17T05:46:52.547Z,15.30
2022-10-17T05:49:48.536Z,15.00
2022-10-17T05:52:45.125Z,14.50
2022-10-17T05:55:36.409Z,15.10
2022-10-17T05:58:45.505Z,17.00
2022-10-17T06:01:42.590Z,16.00
2022-10-17T06:04:30.286Z,15.20
2022-10-17T06:07:19.708Z,15.20
2022-10-17T06:10:09.120Z,15.50
2022-10-17T06:12:56.948Z,15.20
2022-10-17T06:15:44.677Z,15.20
2022-10-17T06:18:34.498Z,15.30
2022-10-17T06:21:25.007Z,15.20
2022-10-17T06:24:17.531Z,15.20
2022-10-17T06:27:10.828Z,15.30
2022-10-17T06:30:03.547Z,15.50
2022-10-17T06:32:53.010Z,15.50
2022-10-17T06:35:41.102Z,15.30
2022-10-17T06:38:28.776Z,15.40
2022-10-17T06:41:20.337Z,15.30
2022-10-17T06:44:11.404Z,15.30
2022-10-17T06:47:19.979Z,15.40
2022-10-17T06:50:09.465Z,15.50
2022-10-17T06:53:03.388Z,15.60
2022-10-17T06:56:07.053Z,15.60
2022-10-17T06:59:15.812Z,15.60
2022-10-17T07:02:11.717Z,15.90
2022-10-17T07:04:59.755Z,15.80
2022-10-17T07:07:48.566Z,15.70
2022-10-17T07:10:41.358Z,15.90
2022-10-17T07:13:28.980Z,16.10
2022-10-17T07:16:18.652Z,16.10
2022-10-17T07:19:11.132Z,16.20
2022-10-17T07:22:00.166Z,16.20
2022-10-17T07:27:42.017Z,16.20
2022-10-17T07:30:32.595Z,16.20
2022-10-17T07:33:32.257Z,16.20
2022-10-17T07:36:20.154Z,16.20
2022-10-17T07:39:07.996Z,16.10
2022-10-17T07:41:57.248Z,16.10
2022-10-17T07:44:47.523Z,16.10
2022-10-17T07:47:35.961Z,16.10
2022-10-17T07:50:27.596Z,16.20
2022-10-17T07:53:15.626Z,16.20
2022-10-17T07:56:05.218Z,16.20
2022-10-17T07:58:53.076Z,16.20
2022-10-17T08:01:41.051Z,16.60
2022-10-17T08:04:28.659Z,16.30
2022-10-17T08:07:22.163Z,16.20
2022-10-17T08:10:13.869Z,16.20
2022-10-17T08:13:01.505Z,16.60
2022-10-17T08:15:49.678Z,16.30
2022-10-17T08:18:37.547Z,16.30
2022-10-17T08:21:25.602Z,16.30
2022-10-17T08:24:14.798Z,16.30
2022-10-17T08:27:02.657Z,16.30
2022-10-17T08:29:53.116Z,16.20
2022-10-17T08:32:40.643Z,16.30
2022-10-17T08:35:27.865Z,16.30
2022-10-17T08:38:16.007Z,16.30
2022-10-17T08:41:09.044Z,16.30
2022-10-17T08:44:03.087Z,16.20
2022-10-17T08:46:53.305Z,16.30
2022-10-17T08:49:47.054Z,16.30
2022-10-17T08:52:38.306Z,16.30
2022-10-17T08:55:29.977Z,16.40
2022-10-17T08:58:21.507Z,16.20
2022-10-17T09:01:14.854Z,16.30
2022-10-17T09:04:07.843Z,16.20
2022-10-17T09:06:58.733Z,16.30
2022-10-17T09:09:51.498Z,16.30
2022-10-17T09:12:42.970Z,16.40
2022-10-17T09:15:46.815Z,16.40
2022-10-17T09:18:35.013Z,16.40
2022-10-17T09:21:26.491Z,16.40
2022-10-17T09:24:16.685Z,16.40
2022-10-17T09:27:05.331Z,16.40
2022-10-17T09:29:55.800Z,18.20
2022-10-17T09:32:48.213Z,16.40
2022-10-17T09:35:35.653Z,16.40
2022-10-17T09:38:30.111Z,16.40
2022-10-17T09:41:43.531Z,16.40
2022-10-17T09:44:31.260Z,16.50
2022-10-17T09:47:25.340Z,16.40
2022-10-17T09:50:28.710Z,16.40
2022-10-17T09:53:20.015Z,16.40
2022-10-17T09:56:10.211Z,16.40
2022-10-17T09:58:59.219Z,16.40
2022-10-17T10:01:46.433Z,16.50
2022-10-17T10:04:46.870Z,16.50
2022-10-17T10:07:45.265Z,16.50
2022-10-17T10:10:33.497Z,16.60
2022-10-17T10:13:21.744Z,16.60
2022-10-17T10:16:26.941Z,16.60
2022-10-17T10:19:21.482Z,16.60
2022-10-17T10:22:19.435Z,16.70
2022-10-17T10:25:17.334Z,16.70
2022-10-17T10:28:11.214Z,16.80
2022-10-17T10:31:00.155Z,16.90
2022-10-17T10:33:50.520Z,17.00
2022-10-17T10:36:47.177Z,17.00
2022-10-17T10:39:37.552Z,17.00
2022-10-17T10:42:28.339Z,17.00
2022-10-17T10:45:35.978Z,17.00
2022-10-17T10:48:26.490Z,17.10
2022-10-17T10:51:15.884Z,17.20
2022-10-17T10:54:07.377Z,17.10
2022-10-17T10:56:56.313Z,17.20
2022-10-17T10:59:51.357Z,17.20
2022-10-17T11:02:43.710Z,17.20
2022-10-17T11:05:38.934Z,17.20
2022-10-17T11:08:28.865Z,17.20
2022-10-17T11:11:19.865Z,17.20
2022-10-17T11:14:13.770Z,17.10
2022-10-17T11:17:07.196Z,17.10
2022-10-17T11:20:00.687Z,17.10
2022-10-17T11:22:48.862Z,17.10
2022-10-17T11:25:37.578Z,17.10
2022-10-17T11:28:26.232Z,17.10
2022-10-17T11:31:15.072Z,16.10
2022-10-17T11:34:07.207Z,17.20
2022-10-17T11:36:58.358Z,17.20
2022-10-17T11:39:49.455Z,17.30
2022-10-17T11:42:41.231Z,17.50
2022-10-17T11:45:31.449Z,17.40
2022-10-17T11:48:22.799Z,17.40
2022-10-17T11:54:26.492Z,17.50
2022-10-17T11:57:22.878Z,17.60
2022-10-17T12:00:20.776Z,17.60
2022-10-17T12:03:17.815Z,17.70
2022-10-17T12:06:09.684Z,17.70
2022-10-17T12:09:02.684Z,17.70
2022-10-17T12:11:54.233Z,17.70
2022-10-17T12:14:43.118Z,17.70
2022-10-17T12:17:33.207Z,17.70
2022-10-17T12:20:34.243Z,17.70
2022-10-17T12:23:24.899Z,17.70
2022-10-17T12:26:26.686Z,17.70
2022-10-17T12:29:27.390Z,17.70
2022-10-17T12:32:15.115Z,17.60
2022-10-17T12:35:02.914Z,17.60
2022-10-17T12:38:08.297Z,17.60
2022-10-17T12:41:02.811Z,17.60
2022-10-17T12:43:53.251Z,17.60
2022-10-17T12:46:49.534Z,17.60
2022-10-17T12:49:44.159Z,17.60
2022-10-17T12:55:40.706Z,17.70
2022-10-17T12:58:28.273Z,17.70
2022-10-17T13:01:24.368Z,17.60
2022-10-17T13:04:12.290Z,17.60
2022-10-17T13:07:01.415Z,17.70
2022-10-17T13:09:50.263Z,17.50
2022-10-17T13:12:41.141Z,17.60
2022-10-17T13:15:29.368Z,17.60
2022-10-17T13:18:22.752Z,17.60
2022-10-17T13:21:15.835Z,17.70
2022-10-17T13:24:20.416Z,17.70
2022-10-17T13:27:08.849Z,17.70
2022-10-17T13:29:57.618Z,17.70
2022-10-17T13:32:45.869Z,17.80
2022-10-17T13:38:46.039Z,17.90
2022-10-17T13:41:36.684Z,17.90
2022-10-17T13:44:25.560Z,18.10
2022-10-17T13:47:21.999Z,17.80
2022-10-17T13:50:39.712Z,17.90
2022-10-17T13:53:30.524Z,18.00
2022-10-17T13:56:28.275Z,17.90
2022-10-17T13:59:23.826Z,17.90
2022-10-17T14:02:16.169Z,17.90
2022-10-17T14:05:16.780Z,17.90
2022-10-17T14:08:16.935Z,17.90
2022-10-17T14:11:21.929Z,17.90
2022-10-17T14:14:19.293Z,17.90
2022-10-17T14:17:14.165Z,17.70
2022-10-17T14:20:34.045Z,17.60
2022-10-17T14:23:26.666Z,17.60
2022-10-17T14:26:16.123Z,17.50
2022-10-17T14:29:06.998Z,17.50
2022-10-17T14:32:01.968Z,17.80
2022-10-17T14:34:58.110Z,17.50
2022-10-17T14:37:50.848Z,17.50
2022-10-17T14:40:38.647Z,17.50
2022-10-17T14:43:28.632Z,17.50
2022-10-17T14:46:18.375Z,17.50
2022-10-17T14:49:07.486Z,17.40
2022-10-17T14:52:15.236Z,17.50
2022-10-17T14:55:18.697Z,17.70
2022-10-17T14:58:17.264Z,18.00
2022-10-17T15:01:04.601Z,17.60
2022-10-17T15:03:53.675Z,17.60
2022-10-17T15:06:44.569Z,17.60
2022-10-17T15:09:32.503Z,17.60
2022-10-17T15:12:21.286Z,17.60
2022-10-17T15:15:09.075Z,17.50
2022-10-17T15:17:56.488Z,17.40
2022-10-17T15:20:46.067Z,17.40
2022-10-17T15:23:33.735Z,17.20
2022-10-17T15:26:21.848Z,17.30
2022-10-17T15:29:09.395Z,17.20
2022-10-17T15:31:57.589Z,17.30
2022-10-17T15:34:45.102Z,17.20
2022-10-17T15:37:35.241Z,17.10
2022-10-17T15:40:24.797Z,17.30
2022-10-17T15:43:13.449Z,17.10
2022-10-17T15:46:04.020Z,17.00
2022-10-17T15:48:52.474Z,17.00
2022-10-17T15:51:40.136Z,17.00
2022-10-17T15:54:29.193Z,17.00
2022-10-17T15:57:18.543Z,16.90
2022-10-17T16:00:07.521Z,16.90
2022-10-17T16:02:56.606Z,17.00
2022-10-17T16:05:44.694Z,16.90
2022-10-17T16:08:33.041Z,16.80
2022-10-17T16:11:26.363Z,16.80
2022-10-17T16:14:14.973Z,16.90
2022-10-17T16:17:02.589Z,16.70
2022-10-17T16:19:50.924Z,16.70
2022-10-17T16:22:42.397Z,16.70
2022-10-17T16:25:31.178Z,16.70
2022-10-17T16:28:20.240Z,16.70
2022-10-17T16:31:15.130Z,16.70
2022-10-17T16:34:03.495Z,16.60
2022-10-17T16:36:50.953Z,16.60
2022-10-17T16:39:40.557Z,16.50
2022-10-17T16:42:28.529Z,16.70
2022-10-17T16:45:19.320Z,16.50
2022-10-17T16:48:07.292Z,16.50
2022-10-17T16:50:55.438Z,16.40
2022-10-17T16:53:44.660Z,16.40
2022-10-17T16:56:32.941Z,16.40
2022-10-17T16:59:21.302Z,16.30
2022-10-17T17:02:12.124Z,16.20
2022-10-17T17:04:59.964Z,16.50
2022-10-17T17:07:48.388Z,16.30
2022-10-17T17:10:35.611Z,16.20
2022-10-17T17:13:23.064Z,16.20
2022-10-17T17:16:12.590Z,16.20
2022-10-17T17:19:03.007Z,16.10
2022-10-17T17:21:51.453Z,16.10
2022-10-17T17:24:39.621Z,16.00
2022-10-17T17:27:28.840Z,16.00
2022-10-17T17:30:17.668Z,15.90
2022-10-17T17:33:05.215Z,15.90
2022-10-17T17:35:57.356Z,15.80
2022-10-17T17:38:45.106Z,15.80
2022-10-17T17:41:33.038Z,15.80
2022-10-17T17:44:21.199Z,16.20
2022-10-17T17:47:08.921Z,15.60
2022-10-17T17:49:56.914Z,15.50
2022-10-17T17:52:49.169Z,15.50
2022-10-17T17:55:36.925Z,15.50
2022-10-17T17:58:24.690Z,15.40
2022-10-17T18:01:15.133Z,15.40
2022-10-17T18:04:03.482Z,15.30
2022-10-17T18:06:50.899Z,15.30
2022-10-17T18:09:40.607Z,15.20
2022-10-17T18:12:28.751Z,15.20
2022-10-17T18:15:16.582Z,15.20
2022-10-17T18:18:04.522Z,15.20
2022-10-17T18:20:52.355Z,15.10
2022-10-17T18:23:40.791Z,15.10
2022-10-17T18:26:29.870Z,15.10
2022-10-17T18:29:17.223Z,15.10
2022-10-17T18:32:05.091Z,15.00
2022-10-17T18:34:52.759Z,15.30
2022-10-17T18:40:29.153Z,15.00
2022-10-17T18:43:18.468Z,15.00
2022-10-17T18:46:10.929Z,15.00
2022-10-17T18:49:01.547Z,14.90
2022-10-17T18:51:49.334Z,14.90
2022-10-17T18:54:37.315Z,14.90
2022-10-17T18:57:26.267Z,15.00
2022-10-17T19:00:15.989Z,15.00
2022-10-17T19:03:04.906Z,15.10
2022-10-17T19:05:52.431Z,14.90
2022-10-17T19:08:40.596Z,14.90
2022-10-17T19:11:29.342Z,15.00
2022-10-17T19:14:17.072Z,14.90
2022-10-17T19:17:06.214Z,14.90
2022-10-17T19:19:55.351Z,14.90
2022-10-17T19:22:43.080Z,14.90
2022-10-17T19:25:31.790Z,14.90
2022-10-17T19:28:19.497Z,14.80
2022-10-17T19:31:07.784Z,15.90
2022-10-17T19:33:57.798Z,14.80
2022-10-17T19:36:45.335Z,15.60
2022-10-17T19:39:33.255Z,14.80
2022-10-17T19:42:21.191Z,14.80
2022-10-17T19:45:09.609Z,14.70
2022-10-17T19:47:57.659Z,14.70
2022-10-17T19:50:46.604Z,14.70
2022-10-17T19:53:34.618Z,14.70
2022-10-17T19:56:23.188Z,14.70
2022-10-17T19:59:12.506Z,14.50
2022-10-17T20:02:00.489Z,14.60
2022-10-17T20:04:54.679Z,14.60
2022-10-17T20:07:55.148Z,14.60
2022-10-17T20:10:43.035Z,14.60
2022-10-17T20:13:30.599Z,14.60
2022-10-17T20:16:20.679Z,14.60
2022-10-17T20:19:09.798Z,14.60
2022-10-17T20:21:57.618Z,14.50
2022-10-17T20:24:46.517Z,14.70
2022-10-17T20:27:34.132Z,13.80
2022-10-17T20:30:21.780Z,14.60
2022-10-17T20:33:09.225Z,14.60
2022-10-17T20:35:57.436Z,14.50
2022-10-17T20:38:44.720Z,14.50
2022-10-17T20:41:34.216Z,14.50
2022-10-17T20:44:21.827Z,14.40
2022-10-17T20:47:16.226Z,14.50
2022-10-17T20:50:09.511Z,14.60
2022-10-17T20:53:17.689Z,14.50
2022-10-17T20:56:06.799Z,14.50
2022-10-17T20:58:56.676Z,14.50
2022-10-17T21:01:45.147Z,14.50
2022-10-17T21:04:45.836Z,14.60
2022-10-17T21:07:34.306Z,14.50
2022-10-17T21:10:35.079Z,14.50
2022-10-17T21:13:22.725Z,14.60
2022-10-17T21:16:18.379Z,14.50
2022-10-17T21:19:06.453Z,14.60
2022-10-17T21:21:54.429Z,16.00
2022-10-17T21:24:42.216Z,14.60
2022-10-17T21:27:30.119Z,14.60
2022-10-17T21:30:17.399Z,14.50
2022-10-17T21:33:06.588Z,14.60
2022-10-17T21:35:55.932Z,14.60
2022-10-17T21:38:43.221Z,14.60
2022-10-17T21:41:31.827Z,14.60
2022-10-17T21:44:19.875Z,14.70
2022-10-17T21:47:07.783Z,14.70
2022-10-17T21:49:56.582Z,13.40
2022-10-17T21:52:44.176Z,14.70
2022-10-17T21:55:32.067Z,14.70
2022-10-17T21:58:19.505Z,14.70
2022-10-17T22:01:08.842Z,14.80
2022-10-17T22:03:57.743Z,14.80
2022-10-17T22:06:47.670Z,14.80
2022-10-17T22:09:35.054Z,14.80
2022-10-17T22:12:23.242Z,14.80
2022-10-17T22:18:02.295Z,14.80
2022-10-17T22:20:50.663Z,14.90
2022-10-17T22:23:39.934Z,14.80
2022-10-17T22:26:28.348Z,14.90
2022-10-17T22:29:16.197Z,14.80
2022-10-17T22:32:03.528Z,14.80
2022-10-17T22:34:51.514Z,14.80
2022-10-17T22:37:39.103Z,15.00
2022-10-17T22:40:27.718Z,14.80
2022-10-17T22:43:15.173Z,14.80
2022-10-17T22:46:04.249Z,14.70
2022-10-17T22:48:53.709Z,14.80
2022-10-17T22:51:41.040Z,14.70
2022-10-17T22:54:28.763Z,14.70
2022-10-17T22:57:18.013Z,14.70
2022-10-17T23:00:05.596Z,14.70
2022-10-17T23:02:54.684Z,14.70
2022-10-17T23:05:42.793Z,14.70
2022-10-17T23:08:39.622Z,14.70
2022-10-17T23:11:32.429Z,14.70
2022-10-17T23:14:21.503Z,14.50
2022-10-17T23:17:09.137Z,14.70
2022-10-17T23:19:57.782Z,14.70
2022-10-17T23:22:45.284Z,14.40
2022-10-17T23:25:34.501Z,14.70
2022-10-17T23:28:22.295Z,14.80
2022-10-17T23:31:12.433Z,14.80
2022-10-17T23:33:59.979Z,14.70
2022-10-17T23:36:48.869Z,14.90
2022-10-17T23:39:36.345Z,14.80
2022-10-17T23:42:24.717Z,14.80
2022-10-17T23:45:12.413Z,14.80
2022-10-17T23:48:02.031Z,14.90
2022-10-17T23:50:50.242Z,14.80
2022-10-17T23:53:38.029Z,14.90
2022-10-17T23:56:25.813Z,14.80
2022-10-17T23:59:13.962Z,14.90
